Time;durP1;ratioP1;P1;durP2;ratioP2;P2;SDS_P1;SDS_P2;PMS_P1;PMS_P2;Temp;Humidity;BMP_temperature;BMP_pressure;BME280_temperature;BME280_humidity;BME280_pressure;Samples;Min_cycle;Max_cycle;Signal;HPM_P1;HPM_P2
2021/12/05 00:21:14;;;;;;;47.08;21.02;;;;;;;0.67;91.42;99857.88;5149007;27;20079;-77
2021/12/05 00:23:45;;;;;;;42.78;18.98;;;;;;;0.65;91.45;99851.91;5145980;27;20479;-77
2021/12/05 00:26:18;;;;;;;49.35;19.58;;;;;;;0.63;91.61;99857.84;5149973;27;20038;-77
2021/12/05 00:31:52;;;;;;;46.50;19.23;;;;;;;0.59;91.73;99845.88;5137228;27;20050;-77
2021/12/05 00:34:36;;;;;;;39.95;17.35;;;;;;;0.60;91.57;99850.13;5147031;27;20039;-77
2021/12/05 00:40:27;;;;;;;37.75;17.73;;;;;;;0.60;91.60;99867.13;5150907;27;20053;-78
2021/12/05 00:45:57;;;;;;;42.72;18.75;;;;;;;0.62;91.67;99856.13;5152432;27;20046;-77
2021/12/05 00:59:57;;;;;;;46.40;18.98;;;;;;;0.68;91.52;99873.22;5149106;27;20078;-77
2021/12/05 01:02:42;;;;;;;47.17;20.75;;;;;;;0.67;91.78;99878.28;5150432;27;20562;-77
2021/12/05 01:10:57;;;;;;;44.08;20.73;;;;;;;0.72;91.98;99879.22;5144169;27;20050;-77
2021/12/05 01:13:38;;;;;;;51.83;23.05;;;;;;;0.72;91.59;99881.78;5137373;27;20038;-77
2021/12/05 01:16:10;;;;;;;47.85;23.25;;;;;;;0.70;91.87;99891.09;5151552;27;20059;-77
2021/12/05 01:18:38;;;;;;;49.30;21.30;;;;;;;0.71;91.70;99892.81;5150562;27;20055;-77
2021/12/05 01:21:11;;;;;;;50.03;22.42;;;;;;;0.70;91.78;99891.09;5149914;27;20055;-77
2021/12/05 01:23:51;;;;;;;47.25;21.25;;;;;;;0.74;91.40;99895.44;5147129;27;20050;-77
2021/12/05 01:26:22;;;;;;;58.65;25.40;;;;;;;0.75;91.71;99897.13;5150192;27;20130;-77
2021/12/05 01:29:06;;;;;;;51.22;23.75;;;;;;;0.73;91.76;99893.69;5151768;27;20095;-77
2021/12/05 01:31:46;;;;;;;59.63;24.75;;;;;;;0.69;91.36;99892.78;5150777;27;20051;-77
2021/12/05 01:34:31;;;;;;;51.20;22.23;;;;;;;0.67;91.62;99901.25;5144188;27;20043;-77
2021/12/05 01:37:09;;;;;;;54.33;23.90;;;;;;;0.68;91.44;99903.81;5151092;27;20046;-76
2021/12/05 01:39:51;;;;;;;51.75;23.35;;;;;;;0.67;91.55;99903.81;5152049;27;20164;-76
2021/12/05 01:45:47;;;;;;;49.85;23.73;;;;;;;0.65;91.74;99911.44;5149451;27;20043;-77
2021/12/05 01:51:19;;;;;;;51.53;22.52;;;;;;;0.70;91.87;99903.84;5150571;27;20049;-76
2021/12/05 01:57:03;;;;;;;63.97;25.13;;;;;;;0.72;91.20;99907.28;5150820;27;20382;-76
2021/12/05 02:02:53;;;;;;;64.55;25.08;;;;;;;0.66;91.37;99905.50;5130592;27;20454;-76
2021/12/05 02:11:08;;;;;;;65.80;26.40;;;;;;;0.55;92.01;99905.31;5117036;27;20050;-77
2021/12/05 02:29:35;;;;;;;69.35;27.60;;;;;;;0.57;91.95;99913.84;5148061;27;20167;-77
2021/12/05 02:31:07;;;;;;;63.20;26.30;;;;;;;0.42;91.63;99900.78;5148759;27;20107;-77
2021/12/05 18:24:23;;;;;;;44.92;21.45;;;;;;;0.61;89.65;100548.19;6265874;22;1841226;-74
2021/12/05 18:26:53;;;;;;;45.70;20.77;;;;;;;0.63;89.74;100558.44;6302106;22;20055;-74
2021/12/05 18:29:22;;;;;;;43.78;20.30;;;;;;;0.70;89.87;100569.69;6301792;22;20058;-74
2021/12/05 18:31:51;;;;;;;43.65;20.83;;;;;;;0.70;89.82;100569.69;6290984;22;20450;-74
2021/12/05 18:34:23;;;;;;;43.33;21.50;;;;;;;0.69;90.21;100573.91;6294488;22;20030;-74
2021/12/05 18:36:53;;;;;;;41.83;19.92;;;;;;;0.72;89.99;100570.59;6302553;22;20428;-74
2021/12/05 18:39:27;;;;;;;39.53;20.70;;;;;;;0.73;90.07;100573.19;6300572;22;20362;-75
2021/12/05 18:41:59;;;;;;;40.80;18.58;;;;;;;0.75;90.25;100566.44;6295104;22;20022;-75
2021/12/05 18:44:30;;;;;;;45.20;21.25;;;;;;;0.77;90.25;100576.69;6294068;22;20454;-74
2021/12/05 18:46:59;;;;;;;39.95;20.05;;;;;;;0.77;90.46;100574.13;6302561;22;20072;-76
2021/12/05 18:49:29;;;;;;;41.55;18.92;;;;;;;0.74;90.58;100576.59;6301046;22;20069;-75
2021/12/05 18:51:59;;;;;;;41.38;20.67;;;;;;;0.76;90.81;100577.50;6299279;22;20094;-77
2021/12/05 18:54:29;;;;;;;43.40;19.80;;;;;;;0.76;90.76;100582.59;6298448;22;20015;-74
2021/12/05 18:56:56;;;;;;;36.90;18.67;;;;;;;0.77;90.73;100584.34;6300217;22;20011;-75
2021/12/05 18:59:24;;;;;;;39.35;19.00;;;;;;;0.76;90.92;100582.59;6299486;22;20546;-76
2021/12/05 19:04:42;;;;;;;40.17;19.30;;;;;;;0.76;91.06;100582.59;6293628;22;20397;-75
2021/12/05 19:07:16;;;;;;;40.00;18.55;;;;;;;0.76;90.79;100580.94;6299444;22;20015;-75
2021/12/05 19:12:31;;;;;;;36.15;16.90;;;;;;;0.76;90.66;100585.16;6261776;22;20051;-77
2021/12/05 19:15:02;;;;;;;37.33;16.77;;;;;;;0.78;91.10;100593.72;6296896;22;20098;-76
2021/12/05 19:17:32;;;;;;;35.67;17.38;;;;;;;0.79;91.25;100587.78;6297401;22;20015;-75
2021/12/05 19:20:04;;;;;;;33.25;16.27;;;;;;;0.80;90.63;100594.63;6296923;22;20023;-77
2021/12/05 19:22:34;;;;;;;38.38;17.52;;;;;;;0.79;90.99;100592.91;6287824;22;20080;-75
2021/12/05 19:25:08;;;;;;;37.08;16.30;;;;;;;0.81;90.79;100598.91;6309459;22;20022;-75
2021/12/05 19:27:36;;;;;;;38.88;17.27;;;;;;;0.81;90.73;100591.25;6330528;22;20018;-78
2021/12/05 19:30:06;;;;;;;36.65;16.05;;;;;;;0.84;91.06;100601.56;6329734;22;20454;-74
2021/12/05 19:32:34;;;;;;;37.25;16.88;;;;;;;0.83;90.95;100599.81;6314077;22;20544;-74
2021/12/05 19:35:02;;;;;;;34.03;15.73;;;;;;;0.82;91.20;100603.19;6323263;22;20022;-74
2021/12/05 19:37:31;;;;;;;34.22;16.25;;;;;;;0.85;91.07;100610.94;6327493;22;20018;-75
2021/12/05 19:39:59;;;;;;;35.55;15.30;;;;;;;0.84;91.28;100606.66;6325577;22;20333;-74
2021/12/05 19:42:28;;;;;;;34.78;15.43;;;;;;;0.87;90.90;100611.84;6317663;22;20011;-74
2021/12/05 19:44:58;;;;;;;30.02;15.13;;;;;;;0.91;91.09;100608.56;6330762;22;20550;-74
2021/12/05 19:47:27;;;;;;;33.65;15.73;;;;;;;0.92;90.98;100618.81;6329872;22;20015;-75
2021/12/05 19:49:57;;;;;;;34.25;15.43;;;;;;;0.94;91.02;100608.66;6330949;22;20056;-75
2021/12/05 19:52:26;;;;;;;33.75;15.55;;;;;;;0.94;91.33;100612.06;6317105;22;20086;-74
2021/12/05 19:55:00;;;;;;;41.28;17.40;;;;;;;0.95;91.07;100615.47;6329663;22;20015;-76
2021/12/05 19:57:31;;;;;;;40.58;16.73;;;;;;;0.96;91.24;100609.56;6330466;22;20350;-75
2021/12/05 19:59:59;;;;;;;38.45;16.15;;;;;;;0.97;90.82;100613.84;6329507;22;20049;-75
2021/12/05 20:02:27;;;;;;;35.70;15.73;;;;;;;0.98;90.76;100610.47;6322488;22;20025;-75
2021/12/05 20:04:54;;;;;;;30.83;14.40;;;;;;;0.98;90.73;100610.47;6327064;22;20029;-74
2021/12/05 20:07:23;;;;;;;32.80;14.73;;;;;;;0.97;90.33;100608.72;6329528;22;20130;-75
2021/12/05 20:09:51;;;;;;;33.42;15.10;;;;;;;0.97;90.02;100603.63;6331218;22;20010;-75
2021/12/05 20:12:18;;;;;;;33.92;14.60;;;;;;;1.00;90.12;100607.94;6318358;22;20901;-75
2021/12/05 20:14:48;;;;;;;34.33;15.77;;;;;;;1.00;90.30;100601.16;6326766;22;20019;-75
2021/12/05 20:17:16;;;;;;;40.83;17.15;;;;;;;1.00;90.23;100608.81;6331773;22;20093;-74
2021/12/05 20:19:44;;;;;;;31.88;14.80;;;;;;;1.02;90.02;100602.06;6331456;22;20552;-75
2021/12/05 20:22:12;;;;;;;32.03;14.45;;;;;;;1.02;90.27;100609.72;6324378;22;20018;-75
2021/12/05 20:24:40;;;;;;;35.95;15.82;;;;;;;1.03;89.92;100614.00;6327967;22;20380;-74
2021/12/05 20:27:09;;;;;;;37.35;16.60;;;;;;;1.06;90.14;100618.38;6330596;22;20334;-74
2021/12/05 20:29:38;;;;;;;37.47;16.23;;;;;;;1.06;89.79;100614.13;6332658;22;20019;-74
2021/12/05 20:32:08;;;;;;;34.10;15.52;;;;;;;1.09;89.65;100614.22;6328634;22;20511;-75
2021/12/05 20:34:37;;;;;;;34.72;15.48;;;;;;;1.08;89.92;100612.47;6328315;22;20049;-74
2021/12/05 20:37:06;;;;;;;34.42;15.27;;;;;;;1.10;89.59;100623.59;6334247;22;20015;-75
2021/12/05 20:39:33;;;;;;;36.15;15.52;;;;;;;1.10;90.16;100615.94;6332685;22;20015;-75
2021/12/05 20:42:01;;;;;;;38.88;16.13;;;;;;;1.10;89.78;100618.50;6318634;22;20015;-74
2021/12/05 20:44:30;;;;;;;36.80;15.10;;;;;;;1.11;89.73;100621.91;6328967;22;20045;-76
2021/12/05 20:46:58;;;;;;;36.13;15.80;;;;;;;1.13;89.99;100625.38;6334366;22;20089;-75
2021/12/05 20:49:27;;;;;;;38.83;15.77;;;;;;;1.10;90.15;100633.81;6334249;22;20330;-75
2021/12/05 20:51:56;;;;;;;37.70;16.33;;;;;;;1.11;90.12;100627.88;6328610;22;20010;-75
2021/12/05 20:54:31;;;;;;;40.30;16.90;;;;;;;1.11;89.94;100622.78;6323368;22;20346;-75
2021/12/05 20:56:58;;;;;;;40.08;17.33;;;;;;;1.08;89.93;100622.69;6334306;22;20026;-74
2021/12/05 20:59:26;;;;;;;40.83;17.30;;;;;;;1.10;90.23;100633.81;6333739;22;20019;-75
2021/12/05 21:01:54;;;;;;;41.78;17.25;;;;;;;1.10;90.31;100631.25;6332120;22;20081;-74
2021/12/05 21:04:21;;;;;;;40.08;16.92;;;;;;;1.10;90.21;100636.34;6326912;22;20015;-75
2021/12/05 21:06:50;;;;;;;41.00;17.63;;;;;;;1.09;90.85;100638.88;6334322;22;20097;-74
2021/12/05 21:09:17;;;;;;;41.00;17.98;;;;;;;1.07;90.62;100638.81;6332933;22;20457;-75
2021/12/05 21:11:44;;;;;;;43.58;17.80;;;;;;;1.05;91.07;100640.47;6333766;22;20015;-75
2021/12/05 21:14:12;;;;;;;43.67;16.00;;;;;;;1.01;91.64;100642.88;6329090;22;20015;-75
2021/12/05 21:16:40;;;;;;;39.67;16.65;;;;;;;0.99;91.69;100642.81;6333286;22;20118;-74
2021/12/05 21:19:08;;;;;;;39.63;15.23;;;;;;;0.91;92.50;100645.16;6332785;22;20015;-74
2021/12/05 21:21:36;;;;;;;37.95;14.65;;;;;;;0.84;92.61;100642.38;6330635;22;20017;-74
2021/12/05 21:24:05;;;;;;;36.97;15.13;;;;;;;0.78;93.44;100647.31;6326577;22;20493;-75
2021/12/05 21:26:33;;;;;;;38.08;14.88;;;;;;;0.73;93.36;100653.97;6334526;22;20097;-73
2021/12/05 21:29:02;;;;;;;34.33;13.77;;;;;;;0.67;93.32;100649.53;6333329;22;20042;-74
2021/12/05 21:31:31;;;;;;;34.00;13.48;;;;;;;0.68;93.42;100655.50;6331890;22;20019;-74
2021/12/05 21:33:58;;;;;;;37.25;15.55;;;;;;;0.65;93.86;100655.41;6318451;22;20011;-75
2021/12/05 21:36:26;;;;;;;32.30;14.20;;;;;;;0.65;94.08;100650.31;6331274;22;20315;-75
2021/12/05 21:38:53;;;;;;;33.63;14.80;;;;;;;0.67;94.34;100653.78;6330551;22;20019;-74
2021/12/05 21:41:25;;;;;;;33.13;14.73;;;;;;;0.67;94.17;100658.88;6329266;22;20085;-74
2021/12/05 21:43:56;;;;;;;37.75;18.38;;;;;;;0.67;93.92;100653.78;6323293;22;20017;-73
2021/12/05 21:46:25;;;;;;;33.22;16.27;;;;;;;0.66;94.37;100659.69;6330854;22;20579;-74
2021/12/05 21:48:53;;;;;;;34.63;15.75;;;;;;;0.67;94.33;100666.53;6331156;22;20037;-73
2021/12/05 21:51:22;;;;;;;37.50;15.63;;;;;;;0.63;94.90;100651.13;6329659;22;20037;-74
2021/12/05 21:53:52;;;;;;;40.90;15.88;;;;;;;0.65;94.75;100671.59;6321599;22;20015;-74
2021/12/05 21:56:20;;;;;;;36.15;14.68;;;;;;;0.63;94.91;100669.00;6331191;22;20345;-74
2021/12/05 21:58:51;;;;;;;37.35;14.75;;;;;;;0.61;95.27;100675.75;6331167;22;20060;-74
2021/12/05 22:01:20;;;;;;;33.33;14.85;;;;;;;0.62;95.22;100674.06;6327078;22;20019;-76
2021/12/05 22:03:48;;;;;;;30.38;13.82;;;;;;;0.62;95.16;100677.47;6325596;22;20010;-73
2021/12/05 22:06:17;;;;;;;32.40;14.57;;;;;;;0.62;95.20;100674.91;6333688;22;20019;-74
2021/12/05 22:08:45;;;;;;;36.10;16.08;;;;;;;0.62;95.09;100682.56;6334302;22;20050;-74
2021/12/05 22:11:13;;;;;;;32.33;14.98;;;;;;;0.62;95.22;100676.59;6333357;22;20025;-74
2021/12/05 22:13:42;;;;;;;31.50;14.10;;;;;;;0.65;95.00;100680.94;6329211;22;20282;-73
2021/12/05 22:16:11;;;;;;;36.75;16.23;;;;;;;0.65;95.06;100683.47;6334149;22;20019;-74
2021/12/05 22:18:44;;;;;;;34.28;15.48;;;;;;;0.67;95.49;100684.41;6333417;22;20029;-73
2021/12/05 22:21:15;;;;;;;31.88;15.23;;;;;;;0.68;95.53;100679.34;6333695;22;20023;-74
2021/12/05 22:23:51;;;;;;;29.30;13.63;;;;;;;0.67;95.25;100679.28;6327607;22;20022;-74
2021/12/05 22:26:18;;;;;;;;;;;;;;;0.68;95.55;100675.91;6334312;22;20469;-73
2021/12/05 22:28:46;;;;;;;26.65;12.80;;;;;;;0.66;95.52;100682.66;6335011;22;20349;-73
2021/12/05 22:31:15;;;;;;;26.45;12.73;;;;;;;0.60;95.51;100684.22;6332935;22;20236;-74
2021/12/05 22:33:42;;;;;;;26.00;11.65;;;;;;;0.59;95.44;100677.38;6327061;22;20019;-74
2021/12/05 22:36:11;;;;;;;25.85;12.10;;;;;;;0.55;95.07;100690.84;6332955;22;20103;-74
2021/12/05 22:38:40;;;;;;;24.67;12.27;;;;;;;0.53;95.22;100674.63;6333703;22;20019;-74
2021/12/05 22:41:08;;;;;;;25.33;11.70;;;;;;;0.52;95.46;100690.75;6331272;22;20045;-74
2021/12/05 22:43:35;;;;;;;23.42;11.18;;;;;;;0.53;95.33;100687.41;6325510;22;20011;-74
2021/12/05 22:46:04;;;;;;;21.40;10.70;;;;;;;0.52;95.39;100690.75;6334630;22;20040;-74
2021/12/05 22:48:32;;;;;;;18.42;9.50;;;;;;;0.55;95.37;100692.53;6334195;22;20015;-74
2021/12/05 22:51:00;;;;;;;21.65;10.52;;;;;;;0.57;95.34;100683.25;6331772;22;20080;-74
2021/12/05 22:53:27;;;;;;;19.52;10.07;;;;;;;0.58;95.11;100695.19;6331341;22;20019;-74
2021/12/05 22:55:55;;;;;;;19.50;9.45;;;;;;;0.58;95.09;100690.94;6335829;22;20010;-74
2021/12/05 22:58:22;;;;;;;17.83;9.15;;;;;;;0.58;94.96;100695.19;6336657;22;20011;-74
2021/12/05 23:01:00;;;;;;;24.55;12.15;;;;;;;0.56;94.64;100684.06;6335575;22;20019;-74
2021/12/05 23:03:31;;;;;;;26.17;12.70;;;;;;;0.57;94.66;100693.44;6331236;22;20091;-75
2021/12/05 23:06:01;;;;;;;24.75;11.48;;;;;;;0.58;94.57;100697.75;6336541;22;20082;-74
2021/12/05 23:08:29;;;;;;;21.13;10.75;;;;;;;0.59;94.54;100687.56;6335523;22;20050;-74
2021/12/05 23:10:57;;;;;;;20.45;9.93;;;;;;;0.60;94.23;100694.41;6335079;22;20068;-74
2021/12/05 23:13:26;;;;;;;23.58;10.55;;;;;;;0.53;94.24;100697.59;6329858;22;20042;-73
2021/12/05 23:15:53;;;;;;;16.30;8.73;;;;;;;0.47;94.76;100689.72;6335510;22;20334;-73
2021/12/05 23:18:21;;;;;;;18.63;8.32;;;;;;;0.47;94.67;100697.38;6336423;22;20014;-74
2021/12/05 23:20:50;;;;;;;17.10;8.82;;;;;;;0.47;94.89;100699.91;6335243;22;20531;-74
2021/12/05 23:23:19;;;;;;;15.63;8.48;;;;;;;0.47;94.72;100693.97;6328124;22;20018;-74
2021/12/05 23:25:47;;;;;;;19.27;8.40;;;;;;;0.41;94.81;100691.22;6335095;22;20090;-74
2021/12/05 23:28:15;;;;;;;14.68;8.13;;;;;;;0.35;95.06;100696.13;6334994;22;20098;-74
2021/12/05 23:30:42;;;;;;;15.68;8.20;;;;;;;0.34;94.72;100700.34;6335138;22;20011;-74
2021/12/05 23:33:14;;;;;;;15.63;8.30;;;;;;;0.31;95.23;100707.91;6332595;22;20087;-74
2021/12/05 23:35:42;;;;;;;16.15;8.80;;;;;;;0.28;95.25;100700.16;6336215;22;20525;-74
2021/12/05 23:38:10;;;;;;;17.48;9.20;;;;;;;0.32;95.51;100712.19;6335812;22;20056;-74
2021/12/05 23:40:39;;;;;;;19.08;9.55;;;;;;;0.32;95.28;100707.94;6335361;22;20097;-74
2021/12/05 23:43:07;;;;;;;18.30;9.25;;;;;;;0.34;95.33;100713.09;6329899;22;20022;-74
2021/12/05 23:45:36;;;;;;;15.93;9.52;;;;;;;0.29;95.24;100714.63;6335192;22;20054;-74
2021/12/05 23:48:05;;;;;;;18.67;9.98;;;;;;;0.30;94.99;100721.47;6335965;22;20017;-74
2021/12/05 23:50:35;;;;;;;18.33;9.68;;;;;;;0.28;94.73;100720.56;6334818;22;20858;-74
2021/12/05 23:53:02;;;;;;;16.92;9.32;;;;;;;0.27;94.79;100716.28;6327090;22;20093;-74
2021/12/05 23:55:32;;;;;;;18.70;10.15;;;;;;;0.26;94.54;100720.50;6335330;22;20446;-74
2021/12/05 23:58:01;;;;;;;18.50;10.05;;;;;;;0.27;94.43;100724.78;6335850;22;20038;-74
